Time;durP1;ratioP1;P1;durP2;ratioP2;P2;SDS_P1;SDS_P2;PMS_P1;PMS_P2;Temp;Humidity;BMP_temperature;BMP_pressure;BME280_temperature;BME280_humidity;BME280_pressure;Samples;Min_cycle;Max_cycle;Signal;HPM_P1;HPM_P2
2023/07/12 00:01:29;;;;;;;2.38;1.70;;;;;;;32.37;28.91;100945.41;4983748;28;20062;-76
2023/07/12 00:03:58;;;;;;;3.85;2.22;;;;;;;32.40;28.52;100945.25;4985086;28;20125;-72
2023/07/12 00:06:36;;;;;;;3.08;1.58;;;;;;;32.34;28.27;100936.66;4992949;28;20108;-74
2023/07/12 00:09:05;;;;;;;5.95;1.70;;;;;;;32.34;28.45;100931.28;5007505;28;20077;-73
2023/07/12 00:11:35;;;;;;;6.13;2.03;;;;;;;32.42;28.51;100930.81;5005565;28;20259;-78
2023/07/12 00:14:04;;;;;;;5.93;2.10;;;;;;;32.43;27.30;100929.00;5005156;28;20706;-76
2023/07/12 00:16:37;;;;;;;3.55;2.33;;;;;;;32.47;27.57;100928.72;5001478;28;20530;-75
2023/07/12 00:19:07;;;;;;;7.10;2.10;;;;;;;32.50;28.54;100925.00;5003961;28;20129;-77
2023/07/12 00:21:36;;;;;;;4.32;2.10;;;;;;;32.52;28.40;100923.97;5005228;28;20158;-73
2023/07/12 00:24:05;;;;;;;3.00;1.50;;;;;;;32.52;28.72;100923.97;5007519;28;20058;-78
2023/07/12 00:26:38;;;;;;;2.58;1.65;;;;;;;32.57;28.31;100917.50;5006438;28;20047;-75
2023/07/12 00:29:08;;;;;;;6.45;1.60;;;;;;;32.60;29.26;100909.25;5007749;28;21393;-77
2023/07/12 00:31:38;;;;;;;2.95;1.77;;;;;;;32.60;28.49;100915.50;5005798;28;20139;-74
2023/07/12 00:34:07;;;;;;;5.10;1.90;;;;;;;32.59;27.93;100911.09;5008440;28;20064;-77
2023/07/12 00:36:36;;;;;;;4.43;2.20;;;;;;;32.59;28.03;100912.91;5004221;28;20052;-76
2023/07/12 00:39:06;;;;;;;5.25;2.28;;;;;;;32.59;27.49;100911.09;5003709;28;20056;-75
2023/07/12 00:41:57;;;;;;;2.65;1.70;;;;;;;32.46;27.88;100904.69;5005957;28;20057;-75
2023/07/12 00:44:31;;;;;;;3.25;1.73;;;;;;;32.26;28.99;100906.78;5006548;28;20057;-74
2023/07/12 00:47:01;;;;;;;3.03;1.73;;;;;;;32.11;28.21;100905.00;5007905;28;20074;-76
2023/07/12 00:49:30;;;;;;;4.53;2.00;;;;;;;32.01;28.16;100901.13;5004328;28;20042;-75
2023/07/12 00:52:03;;;;;;;2.78;1.90;;;;;;;31.92;28.49;100903.34;5005197;28;20084;-76
2023/07/12 00:54:50;;;;;;;5.20;2.38;;;;;;;31.87;28.68;100899.22;5000407;28;20050;-76
2023/07/12 00:57:21;;;;;;;4.57;1.80;;;;;;;31.88;28.51;100900.94;5004000;28;20049;-78
2023/07/12 00:59:52;;;;;;;3.40;1.88;;;;;;;31.76;28.95;100883.78;5005663;28;20050;-73
2023/07/12 01:02:22;;;;;;;5.20;2.10;;;;;;;31.63;30.51;100901.47;5002803;28;20056;-80
2023/07/12 01:04:55;;;;;;;4.45;1.83;;;;;;;31.57;28.65;100892.00;5004411;28;20068;-77
2023/07/12 01:07:25;;;;;;;2.47;1.90;;;;;;;31.59;28.84;100886.53;5007263;28;20163;-82
2023/07/12 01:09:54;;;;;;;4.13;1.83;;;;;;;31.65;28.31;100888.88;4999007;28;20443;-75
2023/07/12 01:12:25;;;;;;;2.92;1.83;;;;;;;31.62;29.96;100884.56;5002518;28;20050;-73
2023/07/12 01:14:54;;;;;;;4.68;2.08;;;;;;;31.60;28.52;100888.28;5009301;28;20136;-74
2023/07/12 01:17:23;;;;;;;2.97;2.22;;;;;;;31.51;28.13;100887.84;5014958;28;20482;-74
2023/07/12 01:19:52;;;;;;;3.45;1.98;;;;;;;31.47;29.44;100883.63;5009164;28;20038;-73
2023/07/12 01:22:26;;;;;;;4.88;1.85;;;;;;;31.37;29.18;100879.69;5008047;28;20049;-73
2023/07/12 01:24:55;;;;;;;2.63;2.13;;;;;;;31.35;29.53;100884.25;5004793;28;20057;-73
2023/07/12 01:27:25;;;;;;;3.42;1.85;;;;;;;31.28;29.20;100886.41;5007456;28;20050;-73
2023/07/12 01:29:55;;;;;;;2.65;1.85;;;;;;;31.22;29.95;100885.88;5004419;28;20049;-75
2023/07/12 01:32:23;;;;;;;4.40;1.75;;;;;;;31.19;29.41;100875.38;5008244;28;20046;-74
2023/07/12 01:34:52;;;;;;;3.25;2.00;;;;;;;31.17;29.68;100877.25;5009207;28;20078;-74
2023/07/12 01:37:22;;;;;;;3.35;2.10;;;;;;;31.14;29.95;100874.75;5012045;28;20125;-74
2023/07/12 01:39:51;;;;;;;4.97;1.65;;;;;;;31.10;30.30;100876.72;5005491;28;20058;-74
2023/07/12 01:42:20;;;;;;;2.83;1.88;;;;;;;31.06;30.40;100875.16;5010919;28;20112;-74
2023/07/12 01:44:49;;;;;;;2.85;1.77;;;;;;;30.97;30.07;100873.88;5007371;28;20106;-74
2023/07/12 01:47:18;;;;;;;4.05;1.98;;;;;;;30.90;30.74;100864.44;5011848;28;20114;-74
2023/07/12 01:49:46;;;;;;;2.58;1.77;;;;;;;30.85;29.50;100874.53;5009808;28;20085;-72
2023/07/12 01:52:15;;;;;;;3.58;1.90;;;;;;;30.66;30.52;100870.13;5007712;28;20050;-73
2023/07/12 01:54:46;;;;;;;4.85;2.15;;;;;;;30.46;30.11;100868.50;5012641;28;20042;-74
2023/07/12 01:57:15;;;;;;;2.72;1.75;;;;;;;30.35;30.24;100878.00;5018146;28;20049;-75
2023/07/12 01:59:43;;;;;;;2.65;2.00;;;;;;;30.31;30.26;100865.78;5010284;28;20574;-76
2023/07/12 02:02:12;;;;;;;4.05;2.10;;;;;;;30.29;30.84;100867.66;5019277;28;20449;-74
2023/07/12 02:04:41;;;;;;;3.97;1.80;;;;;;;30.29;30.98;100867.66;5015650;28;20077;-74
2023/07/12 02:07:11;;;;;;;4.72;1.77;;;;;;;30.27;30.98;100865.91;5011278;28;20053;-74
2023/07/12 02:09:42;;;;;;;3.28;1.80;;;;;;;30.26;31.71;100865.94;5005769;28;20065;-74
2023/07/12 02:12:13;;;;;;;2.85;1.75;;;;;;;30.20;31.51;100868.94;5014700;28;20050;-74
2023/07/12 02:14:42;;;;;;;4.32;1.70;;;;;;;30.14;31.67;100856.75;5020874;28;20094;-75
2023/07/12 02:17:10;;;;;;;2.65;1.88;;;;;;;30.12;31.97;100855.97;5011881;28;20137;-74
2023/07/12 02:19:42;;;;;;;3.38;1.88;;;;;;;30.13;31.91;100851.53;5009519;28;20060;-76
2023/07/12 02:22:11;;;;;;;2.05;1.70;;;;;;;30.14;32.90;100858.56;5006730;28;20049;-73
2023/07/12 02:24:39;;;;;;;5.70;1.67;;;;;;;30.14;32.17;100856.75;5002309;28;20133;-74
2023/07/12 02:27:08;;;;;;;4.57;2.25;;;;;;;30.10;31.92;100862.34;5001878;28;20048;-73
2023/07/12 02:29:39;;;;;;;2.40;1.90;;;;;;;30.02;32.38;100857.41;5008684;28;20046;-74
2023/07/12 02:32:09;;;;;;;3.30;1.83;;;;;;;29.94;31.58;100854.22;5004450;28;20065;-73
2023/07/12 02:34:38;;;;;;;2.50;1.90;;;;;;;29.81;32.49;100857.53;5006116;28;20117;-74
2023/07/12 02:37:09;;;;;;;1.50;1.35;;;;;;;29.79;33.33;100858.53;5004202;28;20050;-72
2023/07/12 02:39:38;;;;;;;3.08;1.80;;;;;;;29.76;33.28;100856.88;4998813;28;20050;-72
2023/07/12 02:42:07;;;;;;;2.63;1.55;;;;;;;29.68;31.24;100856.38;5005772;28;20049;-78
2023/07/12 02:44:36;;;;;;;4.35;1.80;;;;;;;29.60;32.90;100853.22;5004416;28;20126;-74
2023/07/12 02:47:07;;;;;;;3.85;1.95;;;;;;;29.49;33.92;100860.88;5007114;28;20176;-74
2023/07/12 02:49:38;;;;;;;3.30;2.10;;;;;;;29.40;33.37;100857.69;5005080;28;20049;-79
2023/07/12 02:52:08;;;;;;;2.38;1.80;;;;;;;29.35;33.39;100864.19;5006494;28;20287;-77
2023/07/12 02:54:37;;;;;;;3.63;1.85;;;;;;;29.28;34.32;100857.41;5011245;28;20044;-75
2023/07/12 02:57:07;;;;;;;2.85;1.83;;;;;;;29.23;34.72;100860.31;5003244;28;20053;-74
2023/07/12 02:59:36;;;;;;;2.38;1.60;;;;;;;29.19;34.80;100859.56;5006513;28;20042;-72
2023/07/12 03:02:08;;;;;;;1.80;1.60;;;;;;;29.13;34.82;100858.97;5006025;28;20093;-73
2023/07/12 03:04:37;;;;;;;3.75;1.90;;;;;;;29.11;34.01;100860.84;5002765;28;20121;-72
2023/07/12 03:07:07;;;;;;;4.28;1.73;;;;;;;29.10;34.37;100865.31;5013093;28;20056;-74
2023/07/12 03:09:38;;;;;;;2.70;1.30;;;;;;;29.06;34.51;100869.03;5001945;28;20565;-73
2023/07/12 03:12:08;;;;;;;4.22;1.85;;;;;;;29.04;35.00;100866.41;5002859;28;20058;-72
2023/07/12 03:14:37;;;;;;;7.68;1.77;;;;;;;28.93;35.51;100866.06;5005129;28;20459;-76
2023/07/12 03:17:08;;;;;;;4.53;1.55;;;;;;;28.82;35.56;100863.03;5004582;28;20120;-79
2023/07/12 03:19:38;;;;;;;2.35;1.50;;;;;;;28.73;35.79;100860.78;5007042;28;20078;-78
2023/07/12 03:22:09;;;;;;;3.28;1.33;;;;;;;28.65;35.91;100868.22;5002407;28;20057;-75
2023/07/12 03:24:38;;;;;;;2.20;1.40;;;;;;;28.56;36.21;100865.03;5006736;28;20054;-73
2023/07/12 03:27:07;;;;;;;2.50;1.27;;;;;;;28.50;36.21;100867.97;5008875;28;20149;-77
2023/07/12 03:29:36;;;;;;;2.78;1.13;;;;;;;28.41;36.57;100869.19;5006338;28;20112;-74
2023/07/12 03:32:10;;;;;;;2.33;1.38;;;;;;;28.35;36.62;100876.56;5002121;28;20128;-76
2023/07/12 03:34:38;;;;;;;4.32;1.33;;;;;;;28.23;37.06;100883.28;5004595;28;20046;-74
2023/07/12 03:37:07;;;;;;;2.15;1.20;;;;;;;28.05;37.37;100882.25;5006720;28;20127;-77
2023/07/12 03:39:39;;;;;;;4.90;1.35;;;;;;;27.97;37.90;100881.72;5001865;28;20047;-73
2023/07/12 03:42:07;;;;;;;;;;;;;;;27.90;38.13;100881.09;5002515;28;20061;-73
2023/07/12 03:44:36;;;;;;;3.40;1.30;;;;;;;27.82;38.96;100882.31;5000315;28;19931;-73
2023/07/12 03:47:05;;;;;;;2.90;1.25;;;;;;;27.70;39.21;100884.53;5010666;28;20060;-73
2023/07/12 03:49:37;;;;;;;2.47;1.40;;;;;;;27.50;38.84;100882.66;5005297;28;20058;-74
2023/07/12 03:52:07;;;;;;;2.70;1.33;;;;;;;27.33;39.48;100885.09;5002252;28;20048;-74
2023/07/12 03:54:35;;;;;;;3.58;1.50;;;;;;;27.20;40.03;100883.81;5005193;28;20049;-73
2023/07/12 03:57:04;;;;;;;4.75;1.60;;;;;;;27.09;41.42;100886.84;5009415;28;20053;-73
2023/07/12 03:59:33;;;;;;;6.03;1.48;;;;;;;26.99;41.52;100894.28;5004035;28;20096;-74
2023/07/12 04:02:02;;;;;;;2.80;1.27;;;;;;;26.93;41.24;100891.84;5011051;28;20046;-74
2023/07/12 04:04:31;;;;;;;7.45;1.35;;;;;;;26.86;40.84;100891.22;5004305;28;20054;-75
2023/07/12 04:07:02;;;;;;;2.67;1.25;;;;;;;26.76;41.12;100889.81;5000653;28;20106;-74
2023/07/12 04:09:31;;;;;;;3.45;1.48;;;;;;;26.68;42.16;100890.06;5005670;28;20078;-75
2023/07/12 04:12:00;;;;;;;3.25;1.48;;;;;;;26.59;42.74;100887.75;5001708;28;20065;-74
2023/07/12 04:14:28;;;;;;;2.75;1.27;;;;;;;26.56;41.98;100893.16;5006625;28;20078;-75
2023/07/12 04:16:57;;;;;;;1.67;1.33;;;;;;;26.47;42.04;100896.97;5007802;28;20050;-74
2023/07/12 04:19:26;;;;;;;3.63;1.10;;;;;;;26.41;42.22;100899.84;5001636;28;20136;-74
2023/07/12 04:21:55;;;;;;;2.03;1.33;;;;;;;26.35;42.20;100902.69;5002596;28;20052;-74
2023/07/12 04:24:25;;;;;;;3.22;1.30;;;;;;;26.28;42.35;100903.84;5009937;28;20034;-75
2023/07/12 04:26:54;;;;;;;1.40;1.05;;;;;;;26.22;42.43;100907.53;4999632;28;20124;-73
2023/07/12 04:29:22;;;;;;;4.38;2.08;;;;;;;26.15;42.65;100908.66;4999952;28;20042;-74
2023/07/12 04:31:51;;;;;;;2.15;1.35;;;;;;;26.09;42.80;100915.06;5008581;28;20042;-74
2023/07/12 04:34:20;;;;;;;3.03;1.08;;;;;;;25.99;43.22;100918.91;5003135;28;20045;-73
2023/07/12 04:36:53;;;;;;;3.45;0.85;;;;;;;25.82;43.90;100911.47;5004897;28;20086;-74
2023/07/12 04:39:22;;;;;;;4.10;1.00;;;;;;;25.78;43.65;100919.56;5006013;28;20136;-73
2023/07/12 04:41:53;;;;;;;2.10;1.20;;;;;;;25.66;44.44;100932.25;5010579;28;20547;-74
2023/07/12 04:44:21;;;;;;;1.73;1.17;;;;;;;25.61;44.45;100931.53;5001085;28;20050;-74
2023/07/12 04:46:50;;;;;;;1.80;1.10;;;;;;;25.54;44.63;100935.28;5006059;28;20133;-73
2023/07/12 04:49:19;;;;;;;2.13;1.20;;;;;;;25.48;44.53;100927.53;5010261;28;20042;-74
2023/07/12 04:51:49;;;;;;;1.70;0.98;;;;;;;25.42;44.73;100938.28;5009101;28;20049;-74
2023/07/12 04:54:18;;;;;;;7.10;1.20;;;;;;;25.35;45.04;100936.72;5003013;28;20054;-74
2023/07/12 04:56:46;;;;;;;3.88;1.10;;;;;;;25.28;45.35;100938.69;5000599;28;20052;-73
2023/07/12 04:59:17;;;;;;;1.40;1.00;;;;;;;25.18;45.72;100940.72;5014348;28;20046;-74
2023/07/12 05:01:45;;;;;;;2.25;1.15;;;;;;;25.08;45.96;100932.16;5010309;28;20620;-74
2023/07/12 05:04:15;;;;;;;3.10;1.38;;;;;;;24.99;46.66;100940.34;5011862;28;20050;-73
2023/07/12 05:06:44;;;;;;;3.63;1.40;;;;;;;24.84;47.86;100941.63;5008045;28;20132;-72
2023/07/12 05:09:12;;;;;;;2.70;1.10;;;;;;;24.70;48.17;100938.47;5012927;28;20060;-74
2023/07/12 05:11:41;;;;;;;3.80;1.70;;;;;;;24.53;47.91;100940.69;5018178;28;20084;-71
2023/07/12 05:14:10;;;;;;;3.65;1.40;;;;;;;24.25;48.26;100930.75;5012424;28;20057;-76
2023/07/12 05:16:40;;;;;;;4.55;1.30;;;;;;;24.12;49.35;100945.16;5009286;28;20125;-72
2023/07/12 05:19:09;;;;;;;4.18;1.25;;;;;;;24.00;49.77;100941.91;5006454;28;20082;-72
2023/07/12 05:21:38;;;;;;;3.50;1.52;;;;;;;23.97;49.36;100936.69;5011648;28;20703;-72
2023/07/12 05:24:07;;;;;;;3.13;1.40;;;;;;;23.96;49.45;100939.38;5003266;28;20054;-72
2023/07/12 05:26:36;;;;;;;3.75;1.08;;;;;;;23.94;49.49;100947.34;5008070;28;20042;-72
2023/07/12 05:29:05;;;;;;;4.05;1.27;;;;;;;23.90;49.35;100948.31;5006466;28;20082;-72
2023/07/12 05:31:34;;;;;;;2.83;1.40;;;;;;;23.88;49.26;100942.19;5007815;28;20050;-74
2023/07/12 05:34:04;;;;;;;4.50;1.33;;;;;;;23.81;49.40;100946.75;5008325;28;20069;-73
2023/07/12 05:36:33;;;;;;;4.38;1.30;;;;;;;23.74;49.81;100945.16;5009153;28;20053;-74
2023/07/12 05:39:03;;;;;;;1.65;1.27;;;;;;;23.62;50.37;100946.25;5006087;28;20133;-72
2023/07/12 05:41:32;;;;;;;3.47;1.27;;;;;;;23.48;51.30;100948.34;5003904;28;20065;-75
2023/07/12 05:44:01;;;;;;;3.97;1.50;;;;;;;23.37;50.90;100943.25;5006206;28;20069;-74
2023/07/12 05:46:30;;;;;;;3.35;1.40;;;;;;;23.33;51.47;100946.00;5007630;28;20050;-74
2023/07/12 05:48:58;;;;;;;3.63;1.20;;;;;;;23.28;51.16;100946.09;5004807;28;20045;-76
2023/07/12 05:51:29;;;;;;;2.15;1.20;;;;;;;23.21;50.89;100940.06;5007929;28;20046;-77
2023/07/12 05:53:58;;;;;;;1.77;1.02;;;;;;;23.16;51.76;100946.34;5007713;28;20129;-77
2023/07/12 05:56:26;;;;;;;2.75;1.02;;;;;;;23.11;52.27;100948.19;5009753;28;20073;-76
2023/07/12 05:58:55;;;;;;;3.92;1.40;;;;;;;23.06;52.28;100953.56;5011061;28;20044;-77
2023/07/12 06:01:26;;;;;;;3.42;1.20;;;;;;;23.02;52.38;100946.63;5010679;28;20057;-77
2023/07/12 06:03:55;;;;;;;2.50;1.42;;;;;;;22.99;52.47;100949.28;5006185;28;20041;-75
2023/07/12 06:06:23;;;;;;;2.85;1.15;;;;;;;22.94;52.86;100945.84;5004784;28;20052;-76
2023/07/12 06:08:54;;;;;;;7.28;1.38;;;;;;;22.85;53.64;100949.50;5004189;28;20173;-75
2023/07/12 06:11:23;;;;;;;2.15;1.17;;;;;;;22.73;53.22;100952.38;5004183;28;20052;-75
2023/07/12 06:13:51;;;;;;;6.00;1.35;;;;;;;22.61;53.66;100952.56;5003314;28;20046;-75
2023/07/12 06:16:20;;;;;;;2.47;1.40;;;;;;;22.51;54.39;100954.50;5004256;28;20050;-73
2023/07/12 06:18:49;;;;;;;2.40;1.45;;;;;;;22.44;54.57;100955.50;5004176;28;20045;-76
2023/07/12 06:21:18;;;;;;;4.32;1.52;;;;;;;22.39;54.94;100963.50;5004988;28;20049;-75
2023/07/12 06:23:46;;;;;;;2.22;1.00;;;;;;;22.26;55.02;100965.44;5012480;28;20050;-75
2023/07/12 06:26:17;;;;;;;4.10;1.60;;;;;;;22.15;54.86;100959.44;5007011;28;20054;-74
2023/07/12 06:28:46;;;;;;;1.70;1.33;;;;;;;22.04;55.81;100962.25;5009140;28;20060;-74
2023/07/12 06:31:14;;;;;;;5.22;1.27;;;;;;;21.89;56.49;100965.09;5005519;28;20061;-75
2023/07/12 06:33:44;;;;;;;3.53;1.10;;;;;;;21.71;56.44;100955.66;5008835;28;20052;-75
2023/07/12 06:36:13;;;;;;;3.17;1.33;;;;;;;21.74;57.12;100966.19;5005757;28;20141;-75
2023/07/12 06:38:42;;;;;;;3.65;1.38;;;;;;;21.70;57.26;100964.47;5007137;28;20042;-74
2023/07/12 06:41:13;;;;;;;3.55;1.38;;;;;;;21.67;57.07;100972.38;5002832;28;20050;-76
2023/07/12 06:43:43;;;;;;;4.30;1.30;;;;;;;21.63;56.88;100970.72;5004848;28;20049;-76
2023/07/12 06:46:12;;;;;;;4.05;1.38;;;;;;;21.58;57.55;100969.88;5005348;28;20056;-74
2023/07/12 06:48:41;;;;;;;8.10;1.58;;;;;;;21.49;57.37;100976.16;5004175;28;20046;-75
2023/07/12 06:51:11;;;;;;;3.08;0.82;;;;;;;21.31;59.80;100971.94;5004225;28;20053;-75
2023/07/12 06:53:39;;;;;;;2.83;1.13;;;;;;;21.16;59.77;100969.47;5001856;28;20054;-75
2023/07/12 06:56:08;;;;;;;3.65;1.02;;;;;;;21.01;59.05;100970.50;5008908;28;20050;-74
2023/07/12 06:58:37;;;;;;;2.75;1.10;;;;;;;21.00;59.47;100977.50;5000290;28;20049;-76
2023/07/12 07:01:11;;;;;;;10.75;1.42;;;;;;;20.93;60.17;100978.47;5003403;28;20069;-75
2023/07/12 07:03:39;;;;;;;12.07;2.15;;;;;;;20.80;60.83;100979.44;5000825;28;20050;-75
2023/07/12 07:06:07;;;;;;;4.05;1.40;;;;;;;20.73;60.78;100988.28;5004577;28;20058;-75
2023/07/12 07:08:36;;;;;;;4.32;1.50;;;;;;;20.68;60.80;100977.81;5006324;28;20057;-76
2023/07/12 07:11:05;;;;;;;6.95;1.08;;;;;;;20.62;61.12;100977.88;4999302;28;20056;-74
2023/07/12 07:13:34;;;;;;;1.83;1.08;;;;;;;20.55;61.56;100982.28;5005451;28;20815;-75
2023/07/12 07:16:03;;;;;;;1.30;0.93;;;;;;;20.53;61.54;100980.56;5006419;28;20153;-74
2023/07/12 07:18:33;;;;;;;1.08;0.68;;;;;;;20.48;61.45;100989.34;5000721;28;20065;-76
2023/07/12 07:21:03;;;;;;;3.65;1.52;;;;;;;20.41;62.46;100985.03;5001137;28;20061;-75
2023/07/12 07:23:33;;;;;;;2.88;1.23;;;;;;;20.39;62.75;100985.91;4998632;28;20490;-75
2023/07/12 07:26:04;;;;;;;2.63;0.80;;;;;;;20.32;63.03;100984.19;5007587;28;20041;-77
2023/07/12 07:28:34;;;;;;;1.70;0.80;;;;;;;20.30;63.62;100995.59;5005271;28;20056;-75
2023/07/12 07:31:03;;;;;;;2.92;1.00;;;;;;;20.27;63.38;100990.38;5004338;28;20049;-74
2023/07/12 07:33:36;;;;;;;3.55;1.10;;;;;;;20.26;64.53;100998.25;5005201;28;20037;-74
2023/07/12 07:36:08;;;;;;;5.50;0.85;;;;;;;20.23;64.81;100999.16;5005587;28;20050;-74
2023/07/12 07:38:37;;;;;;;1.55;0.77;;;;;;;20.22;65.09;100989.50;5003378;28;20038;-74
2023/07/12 07:41:09;;;;;;;1.38;0.75;;;;;;;20.21;65.26;100987.78;5002113;28;20064;-76
2023/07/12 07:43:39;;;;;;;2.95;1.08;;;;;;;20.23;65.07;100988.66;5002893;28;20623;-75
2023/07/12 07:46:11;;;;;;;1.30;0.90;;;;;;;20.25;64.70;100991.28;5001529;28;20143;-79
2023/07/12 07:48:42;;;;;;;1.77;0.80;;;;;;;20.23;64.52;100988.66;5004491;28;20077;-77
2023/07/12 07:51:11;;;;;;;1.45;0.80;;;;;;;20.26;64.43;100993.00;5001713;28;20054;-77
2023/07/12 07:53:40;;;;;;;1.48;0.85;;;;;;;20.24;64.48;100992.13;5002557;28;20056;-79
2023/07/12 07:56:09;;;;;;;2.42;0.80;;;;;;;20.23;64.65;100993.91;5003603;28;20054;-78
2023/07/12 07:58:38;;;;;;;5.68;1.02;;;;;;;20.12;66.41;100985.22;5006910;28;20045;-77
2023/07/12 08:01:07;;;;;;;2.67;1.05;;;;;;;19.97;66.28;100991.41;5009027;28;20149;-76
2023/07/12 08:03:36;;;;;;;1.42;0.82;;;;;;;19.96;66.30;100988.81;5023078;28;20053;-76
2023/07/12 08:06:07;;;;;;;1.27;0.88;;;;;;;19.97;66.24;100990.53;5015360;28;20464;-77
2023/07/12 08:08:36;;;;;;;1.60;0.82;;;;;;;19.92;66.16;100987.94;5003284;28;20046;-76
2023/07/12 08:11:07;;;;;;;1.63;1.05;;;;;;;19.91;66.42;100990.59;5005790;28;20076;-76
2023/07/12 08:13:36;;;;;;;2.17;0.90;;;;;;;19.86;66.33;100986.25;5003675;28;20063;-74
2023/07/12 08:16:04;;;;;;;1.25;0.93;;;;;;;19.82;67.32;100989.75;5003939;28;20213;-76
2023/07/12 08:18:33;;;;;;;3.80;1.00;;;;;;;19.74;67.79;100988.03;5006215;28;20603;-76
2023/07/12 08:21:02;;;;;;;1.30;0.80;;;;;;;19.64;67.95;100980.16;5008652;28;20108;-76
2023/07/12 08:23:32;;;;;;;1.83;0.77;;;;;;;19.55;68.49;100984.59;5007367;28;20051;-76
2023/07/12 08:26:01;;;;;;;3.00;1.02;;;;;;;19.47;68.95;100979.38;5006267;28;20044;-76
2023/07/12 08:28:37;;;;;;;2.22;0.90;;;;;;;19.45;68.90;100976.75;5009479;28;20042;-77
2023/07/12 08:31:12;;;;;;;1.08;0.70;;;;;;;19.41;69.40;100988.13;5007847;28;20062;-78
2023/07/12 08:33:41;;;;;;;0.75;0.68;;;;;;;19.36;69.36;100981.16;5008931;28;20535;-78
2023/07/12 08:36:10;;;;;;;1.17;0.77;;;;;;;19.37;69.14;100991.63;5005579;28;20085;-79
2023/07/12 08:38:42;;;;;;;1.17;0.70;;;;;;;19.34;69.51;100991.66;5009861;28;20050;-78
2023/07/12 08:41:17;;;;;;;2.35;0.75;;;;;;;19.31;69.61;100996.03;4997943;28;20105;-79
2023/07/12 08:43:46;;;;;;;2.53;1.00;;;;;;;19.25;69.43;100992.53;5004822;28;20050;-79
2023/07/12 08:46:18;;;;;;;2.97;0.80;;;;;;;19.29;69.68;101001.28;5006195;28;20049;-79
2023/07/12 08:48:48;;;;;;;3.30;0.88;;;;;;;19.29;69.68;101003.91;5003710;28;20050;-76
2023/07/12 08:51:18;;;;;;;3.63;1.05;;;;;;;19.22;70.18;101003.06;5003188;28;20057;-76
2023/07/12 08:53:50;;;;;;;0.90;0.85;;;;;;;19.16;70.45;101002.19;5006515;28;20104;-77
2023/07/12 08:56:18;;;;;;;2.15;0.80;;;;;;;19.14;70.71;100999.56;5010160;28;20054;-78
2023/07/12 08:58:52;;;;;;;1.73;0.80;;;;;;;19.15;70.61;101010.91;5008909;28;20065;-78
2023/07/12 09:01:37;;;;;;;1.15;0.80;;;;;;;19.14;70.81;101010.06;5006490;28;21256;-77
2023/07/12 09:04:21;;;;;;;1.13;0.80;;;;;;;19.09;71.17;101010.94;5005900;28;20116;-77
2023/07/12 09:06:50;;;;;;;2.25;0.75;;;;;;;19.07;71.03;101012.69;5003777;28;20160;-77
2023/07/12 09:09:21;;;;;;;2.15;0.95;;;;;;;19.05;71.31;101008.31;5004913;28;20145;-78
2023/07/12 09:11:50;;;;;;;1.67;0.98;;;;;;;19.02;72.05;101013.56;5005353;28;20042;-76
2023/07/12 09:14:19;;;;;;;1.95;0.73;;;;;;;18.97;71.99;101007.47;5007798;28;20049;-76
2023/07/12 09:16:50;;;;;;;0.95;0.77;;;;;;;18.95;72.33;101009.22;5004875;28;20393;-77
2023/07/12 09:19:23;;;;;;;1.20;0.73;;;;;;;18.90;71.79;101005.72;5002021;28;20050;-76
2023/07/12 09:21:56;;;;;;;2.67;0.90;;;;;;;18.87;72.55;101003.09;5004646;28;20042;-76
2023/07/12 09:24:30;;;;;;;1.75;1.00;;;;;;;18.89;72.23;101009.22;5004214;28;20446;-76
2023/07/12 09:27:05;;;;;;;1.67;0.80;;;;;;;18.84;72.59;101003.09;5004051;28;20502;-77
2023/07/12 09:29:34;;;;;;;2.22;0.90;;;;;;;18.82;73.51;101003.09;5007186;28;20130;-74
2023/07/12 09:32:04;;;;;;;1.27;0.73;;;;;;;18.76;72.78;100989.06;5004428;28;20058;-77
2023/07/12 09:34:38;;;;;;;0.98;0.68;;;;;;;18.81;72.37;100997.88;5004646;28;20052;-76
2023/07/12 09:37:15;;;;;;;1.30;0.80;;;;;;;18.83;72.77;100998.75;5005403;28;20050;-77
2023/07/12 09:39:57;;;;;;;1.35;0.80;;;;;;;18.83;72.21;100996.13;5005755;28;20553;-77
2023/07/12 09:42:26;;;;;;;2.55;0.77;;;;;;;18.83;71.63;100996.13;5004605;28;20124;-77
2023/07/12 09:44:55;;;;;;;1.65;0.98;;;;;;;18.83;71.97;100998.75;5004514;28;20072;-75
2023/07/12 09:47:47;;;;;;;1.52;0.77;;;;;;;18.82;72.45;101003.09;5005210;28;20049;-76
2023/07/12 09:50:22;;;;;;;4.73;1.10;;;;;;;18.81;72.45;101001.34;5008394;28;20061;-76
2023/07/12 09:53:01;;;;;;;3.40;1.17;;;;;;;18.79;72.65;101005.72;5011301;28;20075;-76
2023/07/12 09:55:40;;;;;;;1.52;1.02;;;;;;;18.72;73.17;100998.72;5004908;28;20058;-75
2023/07/12 09:58:16;;;;;;;3.42;1.17;;;;;;;18.66;73.49;101005.69;5002711;28;20543;-76
2023/07/12 10:01:00;;;;;;;1.65;1.00;;;;;;;18.60;74.09;101003.97;5007362;28;20120;-76
2023/07/12 10:03:36;;;;;;;2.90;0.95;;;;;;;18.56;74.46;101008.31;5004595;28;20072;-76
2023/07/12 10:06:13;;;;;;;2.65;1.20;;;;;;;18.52;74.82;101014.41;5003201;28;20122;-76
2023/07/12 10:08:49;;;;;;;2.35;0.98;;;;;;;18.46;74.11;101013.53;5005939;28;20041;-77
2023/07/12 10:11:28;;;;;;;1.90;0.80;;;;;;;18.42;74.72;101015.28;5005120;28;20050;-76
2023/07/12 10:14:01;;;;;;;2.00;0.68;;;;;;;18.36;75.63;101018.75;5007050;28;20407;-77
2023/07/12 10:16:34;;;;;;;1.23;0.60;;;;;;;18.30;75.67;101012.63;5005293;28;20085;-74
2023/07/12 10:19:07;;;;;;;1.20;0.70;;;;;;;18.30;75.90;101018.78;5006713;28;20050;-77
2023/07/12 10:21:36;;;;;;;1.40;0.80;;;;;;;18.29;75.99;101016.13;5012238;28;20065;-78
2023/07/12 10:24:07;;;;;;;1.10;0.77;;;;;;;18.28;75.88;101014.38;5007379;28;20589;-76
2023/07/12 10:26:38;;;;;;;1.55;0.77;;;;;;;18.27;76.26;101018.75;5004746;28;20054;-76
2023/07/12 10:29:12;;;;;;;1.45;1.00;;;;;;;18.29;76.70;101010.91;5002188;28;20057;-77
2023/07/12 10:31:49;;;;;;;2.78;0.80;;;;;;;18.27;77.15;101008.25;5005360;28;20050;-77
2023/07/12 10:34:27;;;;;;;2.47;1.50;;;;;;;18.23;77.10;101008.25;5005350;28;20507;-76
2023/07/12 10:36:58;;;;;;;1.45;0.70;;;;;;;18.22;77.74;101015.25;5004926;28;20716;-77
2023/07/12 10:39:28;;;;;;;2.55;1.00;;;;;;;18.21;76.89;101010.91;5009409;28;20172;-76
2023/07/12 10:42:03;;;;;;;1.05;0.88;;;;;;;18.23;77.24;101008.25;5003917;28;20077;-76
2023/07/12 10:44:36;;;;;;;0.85;0.68;;;;;;;18.21;76.94;101013.50;5003942;28;20085;-75
2023/07/12 10:47:13;;;;;;;1.52;0.70;;;;;;;18.18;77.13;101013.50;5007175;28;20080;-74
2023/07/12 10:49:48;;;;;;;0.90;0.80;;;;;;;18.13;77.83;101016.09;5006171;28;20500;-75
2023/07/12 10:52:27;;;;;;;1.80;0.70;;;;;;;18.10;77.47;101016.09;5008497;28;20046;-75
2023/07/12 10:55:23;;;;;;;2.65;0.80;;;;;;;18.10;77.53;101021.34;5002760;28;20128;-77
2023/07/12 10:57:54;;;;;;;5.20;0.90;;;;;;;18.11;77.17;101027.44;5004537;28;20045;-76
2023/07/12 11:00:27;;;;;;;1.13;0.80;;;;;;;18.10;77.15;101030.94;5006378;28;20518;-77
2023/07/12 11:03:19;;;;;;;2.88;0.75;;;;;;;18.06;77.27;101030.03;5004808;28;20073;-75
2023/07/12 11:05:59;;;;;;;2.05;0.80;;;;;;;18.03;77.43;101029.16;5001697;28;20042;-76
2023/07/12 11:08:46;;;;;;;1.15;0.90;;;;;;;17.97;77.74;101035.25;5005265;28;20069;-76
2023/07/12 11:11:35;;;;;;;1.67;0.70;;;;;;;17.93;77.74;101031.72;5001899;28;20178;-76
2023/07/12 11:14:35;;;;;;;1.55;0.70;;;;;;;17.92;77.35;101037.00;5005142;28;20124;-76
2023/07/12 11:17:16;;;;;;;1.02;0.80;;;;;;;17.89;77.84;101037.84;5002176;28;20057;-78
2023/07/12 11:20:07;;;;;;;1.92;0.88;;;;;;;17.87;77.84;101038.72;5008094;28;20050;-76
2023/07/12 11:22:55;;;;;;;1.17;0.82;;;;;;;17.85;77.30;101035.22;5003625;28;20050;-75
2023/07/12 11:25:30;;;;;;;1.55;0.65;;;;;;;17.82;78.16;101035.19;5000030;28;20053;-76
2023/07/12 11:28:02;;;;;;;1.40;0.77;;;;;;;17.76;78.59;101036.88;5005756;28;20041;-76
2023/07/12 11:30:44;;;;;;;1.87;1.20;;;;;;;17.73;79.22;101049.97;5004355;28;20046;-76
2023/07/12 11:33:25;;;;;;;1.35;0.80;;;;;;;17.71;79.56;101043.84;5002933;28;20141;-77
2023/07/12 11:36:06;;;;;;;1.48;0.90;;;;;;;17.71;79.58;101042.97;5008741;28;20050;-78
2023/07/12 11:38:37;;;;;;;1.73;1.00;;;;;;;17.69;79.59;101040.34;5003993;28;20057;-79
2023/07/12 11:41:08;;;;;;;1.13;0.73;;;;;;;17.69;79.69;101044.72;5005687;28;20045;-77
2023/07/12 11:43:38;;;;;;;2.33;0.80;;;;;;;17.68;79.34;101051.66;4999796;28;20108;-76